sensor_id;sensor_type;location;lat;lon;timestamp;temperature;humidity
14517;DHT22;7344;50.864;4.362;2023-07-13T00:02:07;16.60;88.70
14517;DHT22;7344;50.864;4.362;2023-07-13T00:04:33;16.50;90.10
14517;DHT22;7344;50.864;4.362;2023-07-13T00:06:58;16.50;90.70
14517;DHT22;7344;50.864;4.362;2023-07-13T00:09:24;16.50;92.60
14517;DHT22;7344;50.864;4.362;2023-07-13T00:11:52;16.50;92.90
14517;DHT22;7344;50.864;4.362;2023-07-13T00:14:19;16.50;92.20
14517;DHT22;7344;50.864;4.362;2023-07-13T00:16:44;16.40;94.70
14517;DHT22;7344;50.864;4.362;2023-07-13T00:19:11;16.40;96.80
14517;DHT22;7344;50.864;4.362;2023-07-13T00:21:38;16.40;99.10
14517;DHT22;7344;50.864;4.362;2023-07-13T00:24:05;16.30;99.90
14517;DHT22;7344;50.864;4.362;2023-07-13T00:26:31;16.30;99.90
14517;DHT22;7344;50.864;4.362;2023-07-13T00:28:58;16.30;99.90
14517;DHT22;7344;50.864;4.362;2023-07-13T00:31:24;16.20;99.90
14517;DHT22;7344;50.864;4.362;2023-07-13T00:33:50;16.20;99.90
14517;DHT22;7344;50.864;4.362;2023-07-13T00:36:15;16.20;99.90
14517;DHT22;7344;50.864;4.362;2023-07-13T00:38:41;16.20;99.90
14517;DHT22;7344;50.864;4.362;2023-07-13T00:41:07;16.20;99.90
14517;DHT22;7344;50.864;4.362;2023-07-13T00:43:33;16.30;99.90
14517;DHT22;7344;50.864;4.362;2023-07-13T00:48:29;16.20;99.90
14517;DHT22;7344;50.864;4.362;2023-07-13T00:50:58;16.20;99.90
14517;DHT22;7344;50.864;4.362;2023-07-13T00:53:27;16.10;99.90
14517;DHT22;7344;50.864;4.362;2023-07-13T00:55:55;16.10;99.90
14517;DHT22;7344;50.864;4.362;2023-07-13T00:58:22;16.00;99.90
14517;DHT22;7344;50.864;4.362;2023-07-13T01:00:48;16.10;99.90
14517;DHT22;7344;50.864;4.362;2023-07-13T01:03:15;16.10;99.90
14517;DHT22;7344;50.864;4.362;2023-07-13T01:05:40;16.00;99.90
14517;DHT22;7344;50.864;4.362;2023-07-13T01:08:06;16.00;99.90
14517;DHT22;7344;50.864;4.362;2023-07-13T01:10:32;16.00;99.90
14517;DHT22;7344;50.864;4.362;2023-07-13T01:13:10;15.90;99.90
14517;DHT22;7344;50.864;4.362;2023-07-13T01:15:47;15.90;99.90
14517;DHT22;7344;50.864;4.362;2023-07-13T01:18:19;15.90;99.90
14517;DHT22;7344;50.864;4.362;2023-07-13T01:21:01;15.90;99.90
14517;DHT22;7344;50.864;4.362;2023-07-13T01:23:27;15.90;99.90
14517;DHT22;7344;50.864;4.362;2023-07-13T01:25:54;15.80;99.90
14517;DHT22;7344;50.864;4.362;2023-07-13T01:28:22;15.80;99.90
14517;DHT22;7344;50.864;4.362;2023-07-13T01:30:48;15.80;99.90
14517;DHT22;7344;50.864;4.362;2023-07-13T01:33:16;15.80;99.90
14517;DHT22;7344;50.864;4.362;2023-07-13T01:35:44;15.80;99.90
14517;DHT22;7344;50.864;4.362;2023-07-13T01:38:14;15.80;99.90
14517;DHT22;7344;50.864;4.362;2023-07-13T01:40:40;15.80;99.90
14517;DHT22;7344;50.864;4.362;2023-07-13T01:43:05;15.80;99.90
14517;DHT22;7344;50.864;4.362;2023-07-13T01:45:32;15.80;99.90
14517;DHT22;7344;50.864;4.362;2023-07-13T01:47:57;15.80;99.90
14517;DHT22;7344;50.864;4.362;2023-07-13T01:50:24;15.70;99.90
14517;DHT22;7344;50.864;4.362;2023-07-13T01:52:50;15.70;99.90
14517;DHT22;7344;50.864;4.362;2023-07-13T01:55:15;15.70;99.90
14517;DHT22;7344;50.864;4.362;2023-07-13T01:57:41;15.70;99.90
14517;DHT22;7344;50.864;4.362;2023-07-13T02:00:09;15.70;99.90
14517;DHT22;7344;50.864;4.362;2023-07-13T02:02:35;15.70;99.90
14517;DHT22;7344;50.864;4.362;2023-07-13T02:05:01;15.60;99.90
14517;DHT22;7344;50.864;4.362;2023-07-13T02:07:26;15.60;99.90
14517;DHT22;7344;50.864;4.362;2023-07-13T02:09:52;15.60;99.90
14517;DHT22;7344;50.864;4.362;2023-07-13T02:12:17;15.60;99.90
14517;DHT22;7344;50.864;4.362;2023-07-13T02:14:43;15.60;99.90
14517;DHT22;7344;50.864;4.362;2023-07-13T02:17:10;15.60;99.90
14517;DHT22;7344;50.864;4.362;2023-07-13T02:19:35;15.60;99.90
14517;DHT22;7344;50.864;4.362;2023-07-13T02:22:02;15.60;99.90
14517;DHT22;7344;50.864;4.362;2023-07-13T02:24:27;15.50;99.90
14517;DHT22;7344;50.864;4.362;2023-07-13T02:26:53;15.50;99.90
14517;DHT22;7344;50.864;4.362;2023-07-13T02:29:19;15.50;99.90
14517;DHT22;7344;50.864;4.362;2023-07-13T02:31:44;15.50;99.90
14517;DHT22;7344;50.864;4.362;2023-07-13T02:34:10;15.40;99.90
14517;DHT22;7344;50.864;4.362;2023-07-13T02:36:36;15.40;99.90
14517;DHT22;7344;50.864;4.362;2023-07-13T02:39:04;15.40;99.90
14517;DHT22;7344;50.864;4.362;2023-07-13T02:41:29;15.40;99.90
14517;DHT22;7344;50.864;4.362;2023-07-13T02:43:57;15.40;99.90
14517;DHT22;7344;50.864;4.362;2023-07-13T02:46:29;15.40;99.90
14517;DHT22;7344;50.864;4.362;2023-07-13T02:48:54;15.30;99.90
14517;DHT22;7344;50.864;4.362;2023-07-13T02:51:20;15.30;99.90
14517;DHT22;7344;50.864;4.362;2023-07-13T02:53:46;15.30;99.90
14517;DHT22;7344;50.864;4.362;2023-07-13T02:56:12;15.30;99.90
14517;DHT22;7344;50.864;4.362;2023-07-13T02:58:37;15.30;99.90
14517;DHT22;7344;50.864;4.362;2023-07-13T03:01:10;15.30;99.90
14517;DHT22;7344;50.864;4.362;2023-07-13T03:03:36;15.20;99.90
14517;DHT22;7344;50.864;4.362;2023-07-13T03:06:04;15.20;99.90
14517;DHT22;7344;50.864;4.362;2023-07-13T03:08:31;15.20;99.90
14517;DHT22;7344;50.864;4.362;2023-07-13T03:11:02;15.20;99.90
14517;DHT22;7344;50.864;4.362;2023-07-13T03:13:27;15.20;99.90
14517;DHT22;7344;50.864;4.362;2023-07-13T03:15:53;15.20;99.90
14517;DHT22;7344;50.864;4.362;2023-07-13T03:18:19;15.20;99.90
14517;DHT22;7344;50.864;4.362;2023-07-13T03:20:44;15.20;99.90
14517;DHT22;7344;50.864;4.362;2023-07-13T03:23:10;15.20;99.90
14517;DHT22;7344;50.864;4.362;2023-07-13T03:25:35;15.20;99.90
14517;DHT22;7344;50.864;4.362;2023-07-13T03:28:01;15.10;99.90
14517;DHT22;7344;50.864;4.362;2023-07-13T03:30:26;15.20;99.90
14517;DHT22;7344;50.864;4.362;2023-07-13T03:32:52;15.10;99.90
14517;DHT22;7344;50.864;4.362;2023-07-13T03:35:18;15.10;99.90
14517;DHT22;7344;50.864;4.362;2023-07-13T03:37:43;15.20;99.90
14517;DHT22;7344;50.864;4.362;2023-07-13T03:40:09;15.20;99.90
14517;DHT22;7344;50.864;4.362;2023-07-13T03:42:35;15.20;99.90
14517;DHT22;7344;50.864;4.362;2023-07-13T03:45:01;15.20;99.90
14517;DHT22;7344;50.864;4.362;2023-07-13T03:47:26;15.30;99.90
14517;DHT22;7344;50.864;4.362;2023-07-13T03:49:52;15.40;99.90
14517;DHT22;7344;50.864;4.362;2023-07-13T03:52:19;15.40;99.90
14517;DHT22;7344;50.864;4.362;2023-07-13T03:54:44;15.50;99.90
14517;DHT22;7344;50.864;4.362;2023-07-13T03:57:10;15.60;99.90
14517;DHT22;7344;50.864;4.362;2023-07-13T03:59:36;15.60;99.90
14517;DHT22;7344;50.864;4.362;2023-07-13T04:02:02;15.70;99.90
14517;DHT22;7344;50.864;4.362;2023-07-13T04:04:29;15.70;99.90
14517;DHT22;7344;50.864;4.362;2023-07-13T04:06:57;15.80;99.90
14517;DHT22;7344;50.864;4.362;2023-07-13T04:09:24;15.80;99.90
14517;DHT22;7344;50.864;4.362;2023-07-13T04:11:49;15.90;99.90
14517;DHT22;7344;50.864;4.362;2023-07-13T04:14:15;15.90;99.90
14517;DHT22;7344;50.864;4.362;2023-07-13T04:16:42;15.90;99.90
14517;DHT22;7344;50.864;4.362;2023-07-13T04:19:08;15.90;99.90
14517;DHT22;7344;50.864;4.362;2023-07-13T04:21:36;15.90;99.90
14517;DHT22;7344;50.864;4.362;2023-07-13T04:24:02;15.90;99.90
14517;DHT22;7344;50.864;4.362;2023-07-13T04:26:28;15.90;99.90
14517;DHT22;7344;50.864;4.362;2023-07-13T04:28:55;15.90;99.90
14517;DHT22;7344;50.864;4.362;2023-07-13T04:31:21;16.00;99.90
14517;DHT22;7344;50.864;4.362;2023-07-13T04:33:47;15.90;99.90
14517;DHT22;7344;50.864;4.362;2023-07-13T04:36:13;15.90;99.90
14517;DHT22;7344;50.864;4.362;2023-07-13T04:38:39;15.90;99.90
14517;DHT22;7344;50.864;4.362;2023-07-13T04:41:07;16.00;99.90
14517;DHT22;7344;50.864;4.362;2023-07-13T04:43:33;16.00;99.90
14517;DHT22;7344;50.864;4.362;2023-07-13T04:46:07;16.00;99.90
14517;DHT22;7344;50.864;4.362;2023-07-13T04:48:34;16.20;99.90
14517;DHT22;7344;50.864;4.362;2023-07-13T04:51:00;16.30;99.90
14517;DHT22;7344;50.864;4.362;2023-07-13T04:53:26;16.30;99.90
14517;DHT22;7344;50.864;4.362;2023-07-13T04:55:52;16.30;99.90
14517;DHT22;7344;50.864;4.362;2023-07-13T04:58:17;16.20;99.90
14517;DHT22;7344;50.864;4.362;2023-07-13T05:00:43;16.20;99.90
14517;DHT22;7344;50.864;4.362;2023-07-13T05:03:09;16.10;99.90
14517;DHT22;7344;50.864;4.362;2023-07-13T05:05:35;16.20;99.90
14517;DHT22;7344;50.864;4.362;2023-07-13T05:08:00;16.20;99.90
14517;DHT22;7344;50.864;4.362;2023-07-13T05:10:26;16.20;99.90
14517;DHT22;7344;50.864;4.362;2023-07-13T05:12:51;16.10;99.90
14517;DHT22;7344;50.864;4.362;2023-07-13T05:15:17;16.30;99.90
14517;DHT22;7344;50.864;4.362;2023-07-13T05:17:47;16.30;99.90
14517;DHT22;7344;50.864;4.362;2023-07-13T05:20:14;16.30;99.90
14517;DHT22;7344;50.864;4.362;2023-07-13T05:22:40;16.40;99.90
14517;DHT22;7344;50.864;4.362;2023-07-13T05:25:06;16.60;99.90
14517;DHT22;7344;50.864;4.362;2023-07-13T05:27:33;16.60;99.90
14517;DHT22;7344;50.864;4.362;2023-07-13T05:29:59;16.60;99.90
14517;DHT22;7344;50.864;4.362;2023-07-13T05:32:24;16.60;99.90
14517;DHT22;7344;50.864;4.362;2023-07-13T05:34:50;16.60;99.90
14517;DHT22;7344;50.864;4.362;2023-07-13T05:37:16;16.60;99.90
14517;DHT22;7344;50.864;4.362;2023-07-13T05:39:41;16.60;99.90
14517;DHT22;7344;50.864;4.362;2023-07-13T05:42:07;16.60;99.90
14517;DHT22;7344;50.864;4.362;2023-07-13T05:44:32;16.80;99.90
14517;DHT22;7344;50.864;4.362;2023-07-13T05:46:58;16.90;99.90
14517;DHT22;7344;50.864;4.362;2023-07-13T05:49:24;17.00;99.90
14517;DHT22;7344;50.864;4.362;2023-07-13T05:51:49;17.00;99.90
14517;DHT22;7344;50.864;4.362;2023-07-13T05:54:15;17.00;99.90
14517;DHT22;7344;50.864;4.362;2023-07-13T05:56:41;17.10;99.90
14517;DHT22;7344;50.864;4.362;2023-07-13T05:59:06;17.10;99.90
14517;DHT22;7344;50.864;4.362;2023-07-13T06:01:32;17.10;99.90
14517;DHT22;7344;50.864;4.362;2023-07-13T06:03:58;17.10;99.90
14517;DHT22;7344;50.864;4.362;2023-07-13T06:06:23;17.00;99.90
14517;DHT22;7344;50.864;4.362;2023-07-13T06:08:49;16.90;99.90
14517;DHT22;7344;50.864;4.362;2023-07-13T06:11:19;17.10;99.90
14517;DHT22;7344;50.864;4.362;2023-07-13T06:13:45;17.30;99.90
14517;DHT22;7344;50.864;4.362;2023-07-13T06:16:12;17.30;99.90
14517;DHT22;7344;50.864;4.362;2023-07-13T06:18:39;17.20;99.90
14517;DHT22;7344;50.864;4.362;2023-07-13T06:21:20;17.30;99.90
14517;DHT22;7344;50.864;4.362;2023-07-13T06:23:49;17.50;99.90
14517;DHT22;7344;50.864;4.362;2023-07-13T06:26:15;17.70;99.90
14517;DHT22;7344;50.864;4.362;2023-07-13T06:28:41;17.90;99.90
14517;DHT22;7344;50.864;4.362;2023-07-13T06:31:08;18.10;99.90
14517;DHT22;7344;50.864;4.362;2023-07-13T06:33:34;18.40;99.90
14517;DHT22;7344;50.864;4.362;2023-07-13T06:36:02;18.50;92.00
14517;DHT22;7344;50.864;4.362;2023-07-13T06:38:28;18.50;95.90
14517;DHT22;7344;50.864;4.362;2023-07-13T06:40:53;18.50;91.20
14517;DHT22;7344;50.864;4.362;2023-07-13T06:43:19;18.80;85.70
14517;DHT22;7344;50.864;4.362;2023-07-13T06:45:47;18.80;78.80
14517;DHT22;7344;50.864;4.362;2023-07-13T06:48:17;19.10;66.70
14517;DHT22;7344;50.864;4.362;2023-07-13T06:50:44;19.30;58.30
14517;DHT22;7344;50.864;4.362;2023-07-13T06:53:11;19.70;52.50
14517;DHT22;7344;50.864;4.362;2023-07-13T06:55:38;20.10;34.30
14517;DHT22;7344;50.864;4.362;2023-07-13T06:58:03;20.20;25.70
14517;DHT22;7344;50.864;4.362;2023-07-13T07:00:29;20.10;30.60
14517;DHT22;7344;50.864;4.362;2023-07-13T07:02:55;20.20;22.50
14517;DHT22;7344;50.864;4.362;2023-07-13T07:05:20;20.20;22.70
14517;DHT22;7344;50.864;4.362;2023-07-13T07:07:49;20.00;28.00
14517;DHT22;7344;50.864;4.362;2023-07-13T07:10:14;20.00;26.30
14517;DHT22;7344;50.864;4.362;2023-07-13T07:12:40;20.00;26.40
14517;DHT22;7344;50.864;4.362;2023-07-13T07:15:06;20.10;28.00
14517;DHT22;7344;50.864;4.362;2023-07-13T07:17:31;20.20;25.30
14517;DHT22;7344;50.864;4.362;2023-07-13T07:19:57;20.70;10.20
14517;DHT22;7344;50.864;4.362;2023-07-13T07:22:23;21.10;3.60
14517;DHT22;7344;50.864;4.362;2023-07-13T07:24:51;20.80;5.80
14517;DHT22;7344;50.864;4.362;2023-07-13T07:27:17;21.00;1.00
14517;DHT22;7344;50.864;4.362;2023-07-13T07:29:42;21.20;1.00
14517;DHT22;7344;50.864;4.362;2023-07-13T07:32:08;21.60;1.00
14517;DHT22;7344;50.864;4.362;2023-07-13T07:34:33;22.20;1.00
14517;DHT22;7344;50.864;4.362;2023-07-13T07:37:00;22.70;1.00
14517;DHT22;7344;50.864;4.362;2023-07-13T07:39:26;24.50;1.00
14517;DHT22;7344;50.864;4.362;2023-07-13T07:41:52;25.60;1.00
14517;DHT22;7344;50.864;4.362;2023-07-13T07:44:18;25.90;1.00
14517;DHT22;7344;50.864;4.362;2023-07-13T07:46:43;26.20;1.00
14517;DHT22;7344;50.864;4.362;2023-07-13T07:49:09;26.90;99.90
14517;DHT22;7344;50.864;4.362;2023-07-13T07:51:36;26.40;1.00
14517;DHT22;7344;50.864;4.362;2023-07-13T07:54:02;27.60;1.00
14517;DHT22;7344;50.864;4.362;2023-07-13T07:56:27;27.70;1.00
14517;DHT22;7344;50.864;4.362;2023-07-13T07:58:53;28.00;99.90
14517;DHT22;7344;50.864;4.362;2023-07-13T08:01:18;27.80;1.00
14517;DHT22;7344;50.864;4.362;2023-07-13T08:03:44;26.50;1.00
14517;DHT22;7344;50.864;4.362;2023-07-13T08:06:09;25.90;1.00
14517;DHT22;7344;50.864;4.362;2023-07-13T08:08:35;26.10;99.90
14517;DHT22;7344;50.864;4.362;2023-07-13T08:11:05;26.40;99.90
14517;DHT22;7344;50.864;4.362;2023-07-13T08:13:32;26.30;99.90
14517;DHT22;7344;50.864;4.362;2023-07-13T08:15:58;26.60;99.90
14517;DHT22;7344;50.864;4.362;2023-07-13T08:18:24;26.20;99.90
14517;DHT22;7344;50.864;4.362;2023-07-13T08:20:49;25.70;1.00
14517;DHT22;7344;50.864;4.362;2023-07-13T08:23:15;25.00;1.00
14517;DHT22;7344;50.864;4.362;2023-07-13T08:25:42;25.20;1.00
14517;DHT22;7344;50.864;4.362;2023-07-13T08:28:08;25.60;1.00
14517;DHT22;7344;50.864;4.362;2023-07-13T08:30:34;25.80;1.00
14517;DHT22;7344;50.864;4.362;2023-07-13T08:32:59;25.20;1.00
14517;DHT22;7344;50.864;4.362;2023-07-13T08:35:25;25.40;1.00
14517;DHT22;7344;50.864;4.362;2023-07-13T08:37:52;24.90;1.00
14517;DHT22;7344;50.864;4.362;2023-07-13T08:40:19;24.50;1.00
14517;DHT22;7344;50.864;4.362;2023-07-13T08:42:58;24.10;1.00
14517;DHT22;7344;50.864;4.362;2023-07-13T08:45:38;24.10;1.00
14517;DHT22;7344;50.864;4.362;2023-07-13T08:48:11;23.90;1.00
14517;DHT22;7344;50.864;4.362;2023-07-13T08:53:39;25.30;1.00
14517;DHT22;7344;50.864;4.362;2023-07-13T08:56:36;26.30;99.90
14517;DHT22;7344;50.864;4.362;2023-07-13T08:59:06;26.70;1.00
14517;DHT22;7344;50.864;4.362;2023-07-13T09:01:58;27.00;1.00
14517;DHT22;7344;50.864;4.362;2023-07-13T09:04:37;27.50;99.90
14517;DHT22;7344;50.864;4.362;2023-07-13T09:07:11;27.20;99.90
14517;DHT22;7344;50.864;4.362;2023-07-13T09:09:54;26.80;1.00
14517;DHT22;7344;50.864;4.362;2023-07-13T09:12:39;27.60;1.00
14517;DHT22;7344;50.864;4.362;2023-07-13T09:15:24;28.20;99.90
14517;DHT22;7344;50.864;4.362;2023-07-13T09:17:52;28.70;99.90
14517;DHT22;7344;50.864;4.362;2023-07-13T09:20:40;29.50;99.90
14517;DHT22;7344;50.864;4.362;2023-07-13T09:23:13;28.80;1.00
14517;DHT22;7344;50.864;4.362;2023-07-13T09:25:40;28.10;99.90
14517;DHT22;7344;50.864;4.362;2023-07-13T09:28:12;28.60;36.30
14517;DHT22;7344;50.864;4.362;2023-07-13T09:30:45;29.10;1.00
14517;DHT22;7344;50.864;4.362;2023-07-13T09:33:13;28.40;99.90
14517;DHT22;7344;50.864;4.362;2023-07-13T09:35:39;27.60;99.90
14517;DHT22;7344;50.864;4.362;2023-07-13T09:38:16;28.30;99.90
14517;DHT22;7344;50.864;4.362;2023-07-13T09:43:17;28.10;99.90
14517;DHT22;7344;50.864;4.362;2023-07-13T09:45:46;27.40;99.90
14517;DHT22;7344;50.864;4.362;2023-07-13T09:48:14;27.80;1.00
14517;DHT22;7344;50.864;4.362;2023-07-13T09:50:42;28.10;1.00
14517;DHT22;7344;50.864;4.362;2023-07-13T09:53:15;27.20;99.90
14517;DHT22;7344;50.864;4.362;2023-07-13T09:55:43;27.40;1.00
14517;DHT22;7344;50.864;4.362;2023-07-13T09:58:11;28.50;1.00
14517;DHT22;7344;50.864;4.362;2023-07-13T10:00:38;29.00;99.90
14517;DHT22;7344;50.864;4.362;2023-07-13T10:03:27;29.50;1.00
14517;DHT22;7344;50.864;4.362;2023-07-13T10:05:53;29.30;99.90
14517;DHT22;7344;50.864;4.362;2023-07-13T10:08:29;28.70;99.90
14517;DHT22;7344;50.864;4.362;2023-07-13T10:11:00;29.20;1.00
14517;DHT22;7344;50.864;4.362;2023-07-13T10:13:56;29.60;99.90
14517;DHT22;7344;50.864;4.362;2023-07-13T10:16:25;29.50;99.90
14517;DHT22;7344;50.864;4.362;2023-07-13T10:18:59;29.40;23.40
14517;DHT22;7344;50.864;4.362;2023-07-13T10:21:30;29.60;58.40
14517;DHT22;7344;50.864;4.362;2023-07-13T10:24:04;29.80;99.90
14517;DHT22;7344;50.864;4.362;2023-07-13T10:26:33;29.90;1.00
14517;DHT22;7344;50.864;4.362;2023-07-13T10:29:07;28.30;1.00
14517;DHT22;7344;50.864;4.362;2023-07-13T10:31:37;27.20;1.00
14517;DHT22;7344;50.864;4.362;2023-07-13T10:34:03;26.90;1.00
14517;DHT22;7344;50.864;4.362;2023-07-13T10:36:40;26.40;99.90
14517;DHT22;7344;50.864;4.362;2023-07-13T10:39:06;24.90;99.90
14517;DHT22;7344;50.864;4.362;2023-07-13T10:41:37;24.40;1.00
14517;DHT22;7344;50.864;4.362;2023-07-13T10:44:04;24.50;99.90
14517;DHT22;7344;50.864;4.362;2023-07-13T10:46:33;24.30;99.90
14517;DHT22;7344;50.864;4.362;2023-07-13T10:49:01;23.90;1.00
14517;DHT22;7344;50.864;4.362;2023-07-13T10:51:30;23.70;1.00
14517;DHT22;7344;50.864;4.362;2023-07-13T10:54:17;23.20;1.00
14517;DHT22;7344;50.864;4.362;2023-07-13T10:56:44;23.20;1.00
14517;DHT22;7344;50.864;4.362;2023-07-13T10:59:18;23.30;1.00
14517;DHT22;7344;50.864;4.362;2023-07-13T11:04:31;24.70;1.00
14517;DHT22;7344;50.864;4.362;2023-07-13T11:07:16;25.80;99.90
14517;DHT22;7344;50.864;4.362;2023-07-13T11:09:43;26.30;1.00
14517;DHT22;7344;50.864;4.362;2023-07-13T11:15:00;25.90;1.00
14517;DHT22;7344;50.864;4.362;2023-07-13T11:17:45;25.50;99.90
14517;DHT22;7344;50.864;4.362;2023-07-13T11:22:49;26.00;1.00
14517;DHT22;7344;50.864;4.362;2023-07-13T11:27:51;26.20;1.00
14517;DHT22;7344;50.864;4.362;2023-07-13T11:33:11;26.30;1.00
14517;DHT22;7344;50.864;4.362;2023-07-13T11:35:53;26.50;1.00
14517;DHT22;7344;50.864;4.362;2023-07-13T11:38:30;25.70;1.00
14517;DHT22;7344;50.864;4.362;2023-07-13T11:41:02;25.50;1.00
14517;DHT22;7344;50.864;4.362;2023-07-13T11:43:29;25.20;99.90
14517;DHT22;7344;50.864;4.362;2023-07-13T11:45:55;24.30;99.90
14517;DHT22;7344;50.864;4.362;2023-07-13T11:48:27;23.70;1.00
14517;DHT22;7344;50.864;4.362;2023-07-13T11:50:59;23.70;1.00
14517;DHT22;7344;50.864;4.362;2023-07-13T11:53:28;23.20;1.00
14517;DHT22;7344;50.864;4.362;2023-07-13T11:55:55;22.80;1.00
14517;DHT22;7344;50.864;4.362;2023-07-13T11:58:24;22.90;1.00
14517;DHT22;7344;50.864;4.362;2023-07-13T12:00:52;22.90;1.00
14517;DHT22;7344;50.864;4.362;2023-07-13T12:03:21;22.80;1.00
14517;DHT22;7344;50.864;4.362;2023-07-13T12:05:57;22.60;1.00
14517;DHT22;7344;50.864;4.362;2023-07-13T12:08:23;22.60;1.00
14517;DHT22;7344;50.864;4.362;2023-07-13T12:10:59;22.50;1.00
14517;DHT22;7344;50.864;4.362;2023-07-13T12:13:27;22.60;1.00
14517;DHT22;7344;50.864;4.362;2023-07-13T12:15:54;22.40;1.00
14517;DHT22;7344;50.864;4.362;2023-07-13T12:18:23;22.40;1.00
14517;DHT22;7344;50.864;4.362;2023-07-13T12:20:57;22.40;1.00
14517;DHT22;7344;50.864;4.362;2023-07-13T12:23:34;22.60;1.00
14517;DHT22;7344;50.864;4.362;2023-07-13T12:26:02;22.90;1.00
14517;DHT22;7344;50.864;4.362;2023-07-13T12:28:33;22.90;1.00
14517;DHT22;7344;50.864;4.362;2023-07-13T12:31:02;22.50;1.00
14517;DHT22;7344;50.864;4.362;2023-07-13T12:33:29;21.90;1.00
14517;DHT22;7344;50.864;4.362;2023-07-13T12:35:55;21.20;1.00
14517;DHT22;7344;50.864;4.362;2023-07-13T12:38:24;20.40;30.00
14517;DHT22;7344;50.864;4.362;2023-07-13T12:40:52;19.80;45.90
14517;DHT22;7344;50.864;4.362;2023-07-13T12:43:20;19.60;80.50
14517;DHT22;7344;50.864;4.362;2023-07-13T12:48:22;19.30;96.30
14517;DHT22;7344;50.864;4.362;2023-07-13T12:50:49;19.40;99.90
14517;DHT22;7344;50.864;4.362;2023-07-13T12:53:38;19.20;99.90
14517;DHT22;7344;50.864;4.362;2023-07-13T12:56:05;19.30;99.90
14517;DHT22;7344;50.864;4.362;2023-07-13T12:58:39;19.20;99.90
14517;DHT22;7344;50.864;4.362;2023-07-13T13:01:07;19.20;99.90
14517;DHT22;7344;50.864;4.362;2023-07-13T13:03:38;19.40;99.90
14517;DHT22;7344;50.864;4.362;2023-07-13T13:08:46;19.60;99.90
14517;DHT22;7344;50.864;4.362;2023-07-13T13:11:12;19.60;99.90
14517;DHT22;7344;50.864;4.362;2023-07-13T13:13:40;19.40;99.90
14517;DHT22;7344;50.864;4.362;2023-07-13T13:16:12;19.90;99.90
14517;DHT22;7344;50.864;4.362;2023-07-13T13:18:38;20.30;97.70
14517;DHT22;7344;50.864;4.362;2023-07-13T13:21:04;20.80;61.80
14517;DHT22;7344;50.864;4.362;2023-07-13T13:23:29;21.50;37.40
14517;DHT22;7344;50.864;4.362;2023-07-13T13:25:55;21.90;13.10
14517;DHT22;7344;50.864;4.362;2023-07-13T13:28:21;22.30;6.60
14517;DHT22;7344;50.864;4.362;2023-07-13T13:30:49;22.40;2.80
14517;DHT22;7344;50.864;4.362;2023-07-13T13:33:18;22.60;3.20
14517;DHT22;7344;50.864;4.362;2023-07-13T13:35:44;22.60;2.40
14517;DHT22;7344;50.864;4.362;2023-07-13T13:38:14;22.60;1.00
14517;DHT22;7344;50.864;4.362;2023-07-13T13:40:42;22.80;1.00
14517;DHT22;7344;50.864;4.362;2023-07-13T13:43:20;23.10;1.00
14517;DHT22;7344;50.864;4.362;2023-07-13T13:45:46;23.50;1.00
14517;DHT22;7344;50.864;4.362;2023-07-13T13:48:33;23.80;1.00
14517;DHT22;7344;50.864;4.362;2023-07-13T13:51:00;24.10;1.00
14517;DHT22;7344;50.864;4.362;2023-07-13T13:53:26;24.30;1.00
14517;DHT22;7344;50.864;4.362;2023-07-13T13:55:52;24.50;1.00
14517;DHT22;7344;50.864;4.362;2023-07-13T13:58:19;24.20;1.00
14517;DHT22;7344;50.864;4.362;2023-07-13T14:00:45;23.90;1.00
14517;DHT22;7344;50.864;4.362;2023-07-13T14:03:29;23.50;1.00
14517;DHT22;7344;50.864;4.362;2023-07-13T14:05:55;23.50;1.00
14517;DHT22;7344;50.864;4.362;2023-07-13T14:08:22;23.30;1.00
14517;DHT22;7344;50.864;4.362;2023-07-13T14:10:51;23.60;1.00
14517;DHT22;7344;50.864;4.362;2023-07-13T14:13:28;23.60;1.00
14517;DHT22;7344;50.864;4.362;2023-07-13T14:15:56;23.80;1.00
14517;DHT22;7344;50.864;4.362;2023-07-13T14:18:21;23.80;1.00
14517;DHT22;7344;50.864;4.362;2023-07-13T14:20:48;23.60;1.00
14517;DHT22;7344;50.864;4.362;2023-07-13T14:23:15;23.70;1.00
14517;DHT22;7344;50.864;4.362;2023-07-13T14:25:42;23.80;1.00
14517;DHT22;7344;50.864;4.362;2023-07-13T14:30:43;24.00;1.00
14517;DHT22;7344;50.864;4.362;2023-07-13T14:33:10;23.90;1.00
14517;DHT22;7344;50.864;4.362;2023-07-13T14:35:36;23.50;1.00
14517;DHT22;7344;50.864;4.362;2023-07-13T14:38:03;23.20;1.00
14517;DHT22;7344;50.864;4.362;2023-07-13T14:40:31;22.80;1.00
14517;DHT22;7344;50.864;4.362;2023-07-13T14:42:57;22.70;1.00
14517;DHT22;7344;50.864;4.362;2023-07-13T14:45:24;22.70;1.00
14517;DHT22;7344;50.864;4.362;2023-07-13T14:47:51;22.90;1.00
14517;DHT22;7344;50.864;4.362;2023-07-13T14:50:23;23.00;1.00
14517;DHT22;7344;50.864;4.362;2023-07-13T14:52:50;23.00;1.00
14517;DHT22;7344;50.864;4.362;2023-07-13T14:55:19;23.20;1.00
14517;DHT22;7344;50.864;4.362;2023-07-13T14:57:45;23.40;1.00
14517;DHT22;7344;50.864;4.362;2023-07-13T15:00:15;23.50;1.00
14517;DHT22;7344;50.864;4.362;2023-07-13T15:02:44;23.40;1.00
14517;DHT22;7344;50.864;4.362;2023-07-13T15:05:17;23.30;1.00
14517;DHT22;7344;50.864;4.362;2023-07-13T15:07:44;23.10;1.00
14517;DHT22;7344;50.864;4.362;2023-07-13T15:10:21;23.30;1.00
14517;DHT22;7344;50.864;4.362;2023-07-13T15:12:47;23.40;1.00
14517;DHT22;7344;50.864;4.362;2023-07-13T15:15:13;23.30;1.00
14517;DHT22;7344;50.864;4.362;2023-07-13T15:17:41;23.40;1.00
14517;DHT22;7344;50.864;4.362;2023-07-13T15:20:33;23.30;1.00
14517;DHT22;7344;50.864;4.362;2023-07-13T15:23:01;23.20;1.00
14517;DHT22;7344;50.864;4.362;2023-07-13T15:25:28;22.90;1.00
14517;DHT22;7344;50.864;4.362;2023-07-13T15:27:56;22.90;1.00
14517;DHT22;7344;50.864;4.362;2023-07-13T15:30:37;23.00;1.00
14517;DHT22;7344;50.864;4.362;2023-07-13T15:33:25;23.20;1.00
14517;DHT22;7344;50.864;4.362;2023-07-13T15:35:52;23.20;1.00
14517;DHT22;7344;50.864;4.362;2023-07-13T15:38:21;23.30;1.00
14517;DHT22;7344;50.864;4.362;2023-07-13T15:40:48;23.20;1.00
14517;DHT22;7344;50.864;4.362;2023-07-13T15:43:16;23.30;1.00
14517;DHT22;7344;50.864;4.362;2023-07-13T15:45:43;23.50;1.00
14517;DHT22;7344;50.864;4.362;2023-07-13T15:48:14;23.80;1.00
14517;DHT22;7344;50.864;4.362;2023-07-13T15:50:52;24.10;1.00
14517;DHT22;7344;50.864;4.362;2023-07-13T15:53:39;24.10;1.00
14517;DHT22;7344;50.864;4.362;2023-07-13T15:56:18;24.00;1.00
14517;DHT22;7344;50.864;4.362;2023-07-13T15:58:44;24.10;99.90
14517;DHT22;7344;50.864;4.362;2023-07-13T16:01:10;24.30;1.00
14517;DHT22;7344;50.864;4.362;2023-07-13T16:03:38;24.30;99.90
14517;DHT22;7344;50.864;4.362;2023-07-13T16:06:10;24.20;1.00
14517;DHT22;7344;50.864;4.362;2023-07-13T16:08:39;24.50;99.90
14517;DHT22;7344;50.864;4.362;2023-07-13T16:11:19;24.60;1.00
14517;DHT22;7344;50.864;4.362;2023-07-13T16:13:46;24.60;1.00
14517;DHT22;7344;50.864;4.362;2023-07-13T16:16:13;24.40;99.90
14517;DHT22;7344;50.864;4.362;2023-07-13T16:18:40;24.50;1.00
14517;DHT22;7344;50.864;4.362;2023-07-13T16:21:14;24.60;1.00
14517;DHT22;7344;50.864;4.362;2023-07-13T16:23:42;24.50;99.90
14517;DHT22;7344;50.864;4.362;2023-07-13T16:26:28;24.40;1.00
14517;DHT22;7344;50.864;4.362;2023-07-13T16:28:54;24.50;99.90
14517;DHT22;7344;50.864;4.362;2023-07-13T16:31:27;24.40;99.90